Aérodrome :
LOGIN :

S'inscrire | Disclaimer

   EN    FR    IT 

 










Légende :    VFR   VFR Marginal   IFR   IFR Intensif   IFR Très Intensif
Visi : 
Plafond : 
>= 8 km
>= 3000ft
5 à 8 km
1000 à 3000 ft
1500m à 5 km
500 à 1000 ft
800 à 1500m
200 à 500 ft
< 800m
< 200 ft
Symboles :   Orages  Brouillard  Fortes neiges  Fortes précipitations  Vent > 20 kt
SIGMETs :   Divers  Orages  Givrage  Turbulence  Onde Orograph.  Cendres Volcan.






- Altitude de l'aérodrome : 171 ft
- Code IATA : EGC


LFBE - Bergerac

DERNIER METAR :
  • 251130Z AUTO 26009KT 9999 FEW008 BKN012 BKN037 14/12 Q1015 TEMPO 20010KT 4000 RA BECMG OVC015

METARs EXPIRÉS :
  • 251100Z AUTO 26010KT 9999 FEW007/// SCT012/// OVC035/// ///TCU 12/11 Q1016 TEMPO 4000 RA OVC006 BECMG 20010KT
  • 251030Z AUTO 26004KT 200V300 1700 1300 R27/1700D +RA BR BKN007/// OVC012/// ///TCU 11/11 Q1016 TEMPO 4000 RA OVC006
  • 251000Z AUTO 22009KT 9999 -RADZ BKN009/// OVC014/// ///TCU 11/10 Q1016 TEMPO 4000 RA OVC006
  • 250930Z AUTO 21010KT 9999 -RA OVC008/// ///TCU 11/10 Q1016 TEMPO 4000 RA OVC006

TAF TAF LFBE
Valide du 25 à 12h jusqu'au 26 à 12h UTC


251100Z 2512/2612 27012KT 9999 BKN020
TEMPO 2515/2612 27015G25KT 4000 SHRA BKN020TCU
PROB30
TEMPO 2600/2612 BKN015CB



MET'MAP, la Météo Aéronautique d'un coup d'oeil ! - Copyright ORBIFLY Décembre 2007 - Disclaimer

ORBIFLY MET'MAP TEAM :

Programmation & Développement : Alexandra Zaïnal
Sur une idée originale de : Baudouin d'Aumeries
Assistance à la programmation : Marc-Olivier Méhu
Soutien technique & logistique : Manuel Goepfert

Contact : metmap@orbifly.com




SOURCES & CREDITS :

   NOAA